createdAt,value
2023-01-06T00:00:45.027Z,101161.03
2023-01-06T00:03:30.485Z,101168.41
2023-01-06T00:06:15.723Z,101169.16
2023-01-06T00:09:03.666Z,101166.56
2023-01-06T00:11:48.645Z,101165.88
2023-01-06T00:14:33.467Z,101158.13
2023-01-06T00:17:18.819Z,101148.38
2023-01-06T00:20:04.865Z,101145.66
2023-01-06T00:22:50.215Z,101133.59
2023-01-06T00:25:35.533Z,101137.81
2023-01-06T00:28:20.399Z,101146.50
2023-01-06T00:31:12.750Z,101144.84
2023-01-06T00:33:58.300Z,101137.59
2023-01-06T00:36:43.568Z,101127.25
2023-01-06T00:39:28.750Z,101115.81
2023-01-06T00:42:13.991Z,101117.59
2023-01-06T00:44:59.076Z,101116.44
2023-01-06T00:47:44.237Z,101104.50
2023-01-06T00:50:29.381Z,101124.03
2023-01-06T00:53:14.724Z,101109.81
2023-01-06T00:56:01.402Z,101117.31
2023-01-06T00:58:46.832Z,101118.22
2023-01-06T01:01:33.852Z,101104.00
2023-01-06T01:04:20.231Z,101089.50
2023-01-06T01:07:05.533Z,101098.56
2023-01-06T01:09:50.391Z,101102.03
2023-01-06T01:12:35.722Z,101105.69
2023-01-06T01:15:22.416Z,101089.31
2023-01-06T01:18:07.300Z,101081.53
2023-01-06T01:20:52.239Z,101085.09
2023-01-06T01:23:37.123Z,101072.94
2023-01-06T01:26:22.088Z,101086.97
2023-01-06T01:29:07.575Z,101066.41
2023-01-06T01:31:53.305Z,101085.09
2023-01-06T01:34:38.527Z,101059.47
2023-01-06T01:37:23.772Z,101076.50
2023-01-06T01:40:10.476Z,101074.63
2023-01-06T01:42:55.345Z,101065.94
2023-01-06T01:45:41.656Z,101063.31
2023-01-06T01:48:31.533Z,101050.38
2023-01-06T01:51:20.998Z,101028.88
2023-01-06T01:54:12.749Z,101058.22
2023-01-06T01:57:04.891Z,101043.53
2023-01-06T01:59:51.440Z,101052.34
2023-01-06T02:02:37.428Z,101046.16
2023-01-06T02:05:25.764Z,101039.25
2023-01-06T02:08:23.343Z,101037.47
2023-01-06T02:11:09.332Z,101042.63
2023-01-06T02:14:02.978Z,101027.47
2023-01-06T02:17:17.492Z,101049.44
2023-01-06T02:20:11.631Z,101042.34
2023-01-06T02:23:10.480Z,101038.50
2023-01-06T02:26:16.779Z,101029.94
2023-01-06T02:29:16.816Z,101059.09
2023-01-06T02:32:17.142Z,101058.34
2023-01-06T02:35:16.785Z,101049.66
2023-01-06T02:38:17.135Z,101054.16
2023-01-06T02:41:27.944Z,101054.78
2023-01-06T02:44:22.390Z,101059.09
2023-01-06T02:47:21.155Z,101063.78
2023-01-06T02:50:15.159Z,101083.25
2023-01-06T02:53:07.443Z,101081.75
2023-01-06T02:55:55.688Z,101088.56
2023-01-06T02:58:49.588Z,101099.81
2023-01-06T03:01:42.319Z,101087.81
2023-01-06T03:04:33.230Z,101095.38
2023-01-06T03:07:20.970Z,101071.53
2023-01-06T03:10:08.540Z,101079.88
2023-01-06T03:12:56.787Z,101079.88
2023-01-06T03:15:42.269Z,101120.84
2023-01-06T03:18:28.097Z,101110.97
2023-01-06T03:21:19.913Z,101129.50
2023-01-06T03:24:07.559Z,101146.59
2023-01-06T03:26:53.904Z,101150.56
2023-01-06T03:29:39.230Z,101157.66
2023-01-06T03:32:32.327Z,101167.63
2023-01-06T03:35:40.080Z,101162.66
2023-01-06T03:38:57.544Z,101169.97
2023-01-06T03:42:35.160Z,101149.13
2023-01-06T03:45:42.078Z,101172.88
2023-01-06T03:48:39.754Z,101173.50
2023-01-06T03:51:38.535Z,101189.09
2023-01-06T03:54:35.236Z,101181.97
2023-01-06T03:57:28.383Z,101204.22
2023-01-06T04:00:21.292Z,101211.09
2023-01-06T04:03:13.622Z,101196.56
2023-01-06T04:05:58.559Z,101217.91
2023-01-06T04:08:43.547Z,101196.66
2023-01-06T04:11:47.343Z,101228.38
2023-01-06T04:14:32.691Z,101229.56
2023-01-06T04:17:17.819Z,101231.53
2023-01-06T04:20:04.463Z,101230.94
2023-01-06T04:22:49.624Z,101214.25
2023-01-06T04:25:34.844Z,101225.44
2023-01-06T04:28:20.129Z,101218.28
2023-01-06T04:31:05.171Z,101232.78
2023-01-06T04:33:50.614Z,101223.84
2023-01-06T04:36:35.561Z,101234.31
2023-01-06T04:39:20.710Z,101233.28
2023-01-06T04:42:06.230Z,101241.28
2023-01-06T04:44:51.486Z,101253.50
2023-01-06T04:47:36.891Z,101236.78
2023-01-06T04:50:22.009Z,101241.50
2023-01-06T04:53:07.624Z,101252.38
2023-01-06T04:55:52.994Z,101245.56
2023-01-06T04:58:38.727Z,101250.25
2023-01-06T05:01:25.432Z,101249.81
2023-01-06T05:04:10.990Z,101238.28
2023-01-06T05:06:55.982Z,101258.94
2023-01-06T05:09:40.917Z,101253.50
2023-01-06T05:12:26.360Z,101251.66
2023-01-06T05:15:11.862Z,101263.25
2023-01-06T05:17:56.803Z,101247.47
2023-01-06T05:20:41.736Z,101269.63
2023-01-06T05:23:26.691Z,101272.63
2023-01-06T05:26:17.745Z,101277.84
2023-01-06T05:29:03.090Z,101269.78
2023-01-06T05:31:48.220Z,101279.16
2023-01-06T05:34:33.593Z,101285.44
2023-01-06T05:37:18.984Z,101276.53
2023-01-06T05:40:04.391Z,101288.38
2023-01-06T05:42:49.354Z,101287.69
2023-01-06T05:45:34.398Z,101303.19
2023-01-06T05:48:20.078Z,101303.56
2023-01-06T05:51:08.107Z,101310.28
2023-01-06T05:53:53.104Z,101319.00
2023-01-06T05:56:38.058Z,101319.22
2023-01-06T05:59:23.216Z,101315.50
2023-01-06T06:02:08.217Z,101328.19
2023-01-06T06:04:53.131Z,101314.56
2023-01-06T06:07:38.053Z,101322.41
2023-01-06T06:10:23.555Z,101315.66
2023-01-06T06:13:08.652Z,101310.69
2023-01-06T06:16:04.245Z,101310.94
2023-01-06T06:18:55.003Z,101305.78
2023-01-06T06:21:39.920Z,101317.16
2023-01-06T06:24:25.010Z,101316.22
2023-01-06T06:27:09.917Z,101312.84
2023-01-06T06:29:55.051Z,101290.31
2023-01-06T06:32:39.999Z,101331.19
2023-01-06T06:35:25.380Z,101305.81
2023-01-06T06:38:10.641Z,101322.44
2023-01-06T06:40:55.942Z,101334.19
2023-01-06T06:43:42.159Z,101342.09
2023-01-06T06:46:27.175Z,101338.72
2023-01-06T06:49:12.590Z,101341.47
2023-01-06T06:51:57.452Z,101332.81
2023-01-06T06:54:42.674Z,101339.84
2023-01-06T06:57:27.699Z,101349.50
2023-01-06T07:00:13.512Z,101335.81
2023-01-06T07:02:58.847Z,101326.03
2023-01-06T07:05:45.880Z,101335.31
2023-01-06T07:08:33.209Z,101354.00
2023-01-06T07:11:19.098Z,101355.84
2023-01-06T07:14:04.260Z,101355.19
2023-01-06T07:16:49.252Z,101351.81
2023-01-06T07:19:34.210Z,101360.56
2023-01-06T07:22:19.471Z,101365.13
2023-01-06T07:25:06.566Z,101362.47
2023-01-06T07:27:56.384Z,101366.75
2023-01-06T07:30:41.686Z,101367.94
2023-01-06T07:33:27.011Z,101373.13
2023-01-06T07:36:12.073Z,101365.53
2023-01-06T07:38:57.304Z,101370.88
2023-01-06T07:41:42.286Z,101363.28
2023-01-06T07:44:27.590Z,101375.44
2023-01-06T07:47:12.546Z,101369.94
2023-01-06T07:49:57.749Z,101372.22
2023-01-06T07:52:42.797Z,101373.09
2023-01-06T07:55:28.926Z,101376.53
2023-01-06T07:58:13.944Z,101390.38
2023-01-06T08:01:05.341Z,101391.28
2023-01-06T08:03:50.578Z,101376.44
2023-01-06T08:06:35.589Z,101391.97
2023-01-06T08:09:20.889Z,101388.75
2023-01-06T08:12:06.482Z,101399.19
2023-01-06T08:14:51.639Z,101399.22
2023-01-06T08:17:36.645Z,101399.38
2023-01-06T08:20:22.441Z,101403.72
2023-01-06T08:23:07.511Z,101393.56
2023-01-06T08:25:52.680Z,101407.31
2023-01-06T08:28:37.628Z,101403.59
2023-01-06T08:31:23.664Z,101405.16
2023-01-06T08:34:08.642Z,101407.00
2023-01-06T08:36:53.704Z,101401.31
2023-01-06T08:39:39.078Z,101413.03
2023-01-06T08:42:24.493Z,101410.34
2023-01-06T08:45:09.552Z,101394.16
2023-01-06T08:47:54.695Z,101410.81
2023-01-06T08:50:40.316Z,101412.72
2023-01-06T08:53:25.613Z,101412.63
2023-01-06T08:56:15.810Z,101416.09
2023-01-06T08:59:03.114Z,101411.00
2023-01-06T09:01:48.480Z,101420.41
2023-01-06T09:04:33.768Z,101424.94
2023-01-06T09:07:18.973Z,101422.22
2023-01-06T09:10:04.626Z,101418.75
2023-01-06T09:12:50.485Z,101424.84
2023-01-06T09:15:40.685Z,101431.72
2023-01-06T09:18:25.871Z,101426.47
2023-01-06T09:21:10.829Z,101429.06
2023-01-06T09:23:55.824Z,101436.53
2023-01-06T09:26:41.616Z,101432.06
2023-01-06T09:29:26.649Z,101434.53
2023-01-06T09:32:12.050Z,101436.94
2023-01-06T09:34:57.371Z,101428.88
2023-01-06T09:37:42.710Z,101433.91
2023-01-06T09:40:41.897Z,101416.72
2023-01-06T09:43:38.947Z,101432.59
2023-01-06T09:46:30.479Z,101434.28
2023-01-06T09:49:41.541Z,101428.03
2023-01-06T09:52:34.817Z,101392.06
2023-01-06T09:55:30.463Z,101430.06
2023-01-06T09:58:18.859Z,101422.31
2023-01-06T10:01:17.119Z,101442.56
2023-01-06T10:04:02.435Z,101430.28
2023-01-06T10:07:08.929Z,101423.09
2023-01-06T10:10:16.036Z,101431.97
2023-01-06T10:13:15.710Z,101432.53
2023-01-06T10:16:22.103Z,101422.25
2023-01-06T10:19:44.288Z,101436.94
2023-01-06T10:23:00.472Z,101440.13
2023-01-06T10:25:53.046Z,101445.06
2023-01-06T10:28:56.585Z,101436.13
2023-01-06T10:31:45.180Z,101440.16
2023-01-06T10:34:34.134Z,101438.88
2023-01-06T10:37:23.702Z,101441.84
2023-01-06T10:40:28.205Z,101443.28
2023-01-06T10:43:14.678Z,101425.47
2023-01-06T10:46:00.252Z,101418.06
2023-01-06T10:48:49.232Z,101423.91
2023-01-06T10:51:38.265Z,101433.28
2023-01-06T10:54:29.721Z,101426.72
2023-01-06T10:57:22.779Z,101421.28
2023-01-06T11:00:13.157Z,101407.28
2023-01-06T11:03:31.554Z,101411.69
2023-01-06T11:06:31.643Z,101400.94
2023-01-06T11:09:55.707Z,101396.44
2023-01-06T11:12:45.876Z,101373.84
2023-01-06T11:15:35.741Z,101383.41
2023-01-06T11:18:29.718Z,101390.66
2023-01-06T11:21:18.239Z,101371.69
2023-01-06T11:24:20.537Z,101382.22
2023-01-06T11:27:16.475Z,101374.38
2023-01-06T11:30:21.159Z,101375.81
2023-01-06T11:33:16.948Z,101361.28
2023-01-06T11:36:11.233Z,101360.78
2023-01-06T11:39:01.606Z,101359.66
2023-01-06T11:41:49.888Z,101352.56
2023-01-06T11:44:38.270Z,101338.53
2023-01-06T11:47:26.673Z,101344.78
2023-01-06T11:50:19.876Z,101332.69
2023-01-06T11:53:16.753Z,101304.00
2023-01-06T11:56:04.322Z,101339.69
2023-01-06T11:58:55.554Z,101328.09
2023-01-06T12:01:50.880Z,101339.91
2023-01-06T12:04:41.851Z,101327.31
2023-01-06T12:07:38.515Z,101307.28
2023-01-06T12:10:28.049Z,101321.06
2023-01-06T12:13:14.627Z,101324.06
2023-01-06T12:16:11.462Z,101318.16
2023-01-06T12:18:57.316Z,101310.59
2023-01-06T12:21:42.591Z,101318.88
2023-01-06T12:24:29.845Z,101314.06
2023-01-06T12:27:27.738Z,101313.22
2023-01-06T12:30:23.714Z,101305.22
2023-01-06T12:33:18.565Z,101295.03
2023-01-06T12:36:12.372Z,101288.22
2023-01-06T12:39:33.321Z,101289.06
2023-01-06T12:42:31.746Z,101277.34
2023-01-06T12:45:41.123Z,101261.63
2023-01-06T12:48:44.335Z,101257.91
2023-01-06T12:51:44.387Z,101250.59
2023-01-06T12:54:33.366Z,101247.22
2023-01-06T12:57:30.162Z,101254.72
2023-01-06T13:00:28.538Z,101249.00
2023-01-06T13:03:34.091Z,101246.19
2023-01-06T13:06:40.495Z,101244.41
2023-01-06T13:09:56.085Z,101234.69
2023-01-06T13:12:43.922Z,101233.94
2023-01-06T13:15:31.055Z,101224.19
2023-01-06T13:18:55.618Z,101241.31
2023-01-06T13:21:42.751Z,101229.22
2023-01-06T13:24:48.599Z,101216.69
2023-01-06T13:27:46.518Z,101213.88
2023-01-06T13:30:56.489Z,101210.16
2023-01-06T13:33:47.685Z,101194.69
2023-01-06T13:36:35.506Z,101182.44
2023-01-06T13:39:26.797Z,101195.81
2023-01-06T13:42:19.593Z,101189.63
2023-01-06T13:45:11.747Z,101189.56
2023-01-06T13:47:58.266Z,101184.13
2023-01-06T13:50:43.771Z,101179.63
2023-01-06T13:53:46.034Z,101181.09
2023-01-06T13:56:35.321Z,101177.66
2023-01-06T13:59:24.629Z,101158.00
2023-01-06T14:02:35.247Z,101163.69
2023-01-06T14:05:23.416Z,101173.44
2023-01-06T14:08:17.866Z,101146.78
2023-01-06T14:11:26.885Z,101151.00
2023-01-06T14:14:39.058Z,101158.75
2023-01-06T14:17:42.784Z,101159.69
2023-01-06T14:20:32.191Z,101157.72
2023-01-06T14:23:17.020Z,101144.63
2023-01-06T14:26:03.350Z,101160.72
2023-01-06T14:28:48.437Z,101158.09
2023-01-06T14:31:33.539Z,101127.03
2023-01-06T14:34:20.615Z,101121.91
2023-01-06T14:37:11.673Z,101140.22
2023-01-06T14:40:00.627Z,101145.94
2023-01-06T14:42:46.765Z,101153.50
2023-01-06T14:45:40.875Z,101141.63
2023-01-06T14:48:28.852Z,101126.53
2023-01-06T14:51:17.979Z,101129.09
2023-01-06T14:54:22.348Z,101134.34
2023-01-06T14:57:26.923Z,101131.84
2023-01-06T15:00:29.554Z,101128.78
2023-01-06T15:03:22.325Z,101121.72
2023-01-06T15:06:22.097Z,101120.88
2023-01-06T15:09:25.362Z,101108.06
2023-01-06T15:12:27.961Z,101115.50
2023-01-06T15:15:22.826Z,101116.22
2023-01-06T15:18:09.327Z,101077.88
2023-01-06T15:20:55.313Z,101099.63
2023-01-06T15:23:50.928Z,101101.53
2023-01-06T15:26:36.852Z,101091.28
2023-01-06T15:29:24.499Z,101096.19
2023-01-06T15:32:12.469Z,101080.25
2023-01-06T15:34:59.379Z,101082.25
2023-01-06T15:37:46.450Z,101085.47
2023-01-06T15:40:32.250Z,101101.91
2023-01-06T15:43:17.815Z,101099.25
2023-01-06T15:46:06.015Z,101107.81
2023-01-06T15:48:51.792Z,101111.38
2023-01-06T15:51:37.088Z,101098.97
2023-01-06T15:54:23.413Z,101086.97
2023-01-06T15:57:16.880Z,101084.13
2023-01-06T16:00:18.912Z,101086.28
2023-01-06T16:03:05.656Z,101096.22
2023-01-06T16:05:57.660Z,101088.47
2023-01-06T16:08:47.176Z,101078.09
2023-01-06T16:11:50.954Z,101088.47
2023-01-06T16:14:43.538Z,101085.94
2023-01-06T16:17:32.246Z,101069.69
2023-01-06T16:20:24.726Z,101074.00
2023-01-06T16:23:24.723Z,101067.59
2023-01-06T16:26:16.888Z,101077.44
2023-01-06T16:29:02.804Z,101065.47
2023-01-06T16:31:47.993Z,101057.47
2023-01-06T16:34:32.972Z,101053.25
2023-01-06T16:37:18.408Z,101056.84
2023-01-06T16:40:04.203Z,101038.78
2023-01-06T16:42:50.939Z,101076.78
2023-01-06T16:45:40.789Z,101076.91
2023-01-06T16:48:27.886Z,101069.13
2023-01-06T16:51:18.484Z,101070.06
2023-01-06T16:54:10.584Z,101055.47
2023-01-06T16:56:55.848Z,101070.72
2023-01-06T16:59:41.139Z,101074.09
2023-01-06T17:02:26.462Z,101071.47
2023-01-06T17:05:24.565Z,101074.72
2023-01-06T17:08:14.343Z,101076.63
2023-01-06T17:11:01.433Z,101071.38
2023-01-06T17:14:00.587Z,101073.03
2023-01-06T17:16:47.496Z,101062.09
2023-01-06T17:19:34.359Z,101064.97
2023-01-06T17:22:30.138Z,101069.28
2023-01-06T17:25:15.535Z,101067.41
2023-01-06T17:28:11.087Z,101062.91
2023-01-06T17:30:56.253Z,101052.81
2023-01-06T17:33:43.049Z,101063.66
2023-01-06T17:36:36.787Z,101065.09
2023-01-06T17:39:29.997Z,101047.91
2023-01-06T17:42:15.244Z,101059.78
2023-01-06T17:45:00.896Z,101057.16
2023-01-06T17:47:50.085Z,101058.81
2023-01-06T17:50:35.785Z,101062.28
2023-01-06T17:53:52.506Z,101075.31
2023-01-06T17:56:37.727Z,101069.09
2023-01-06T17:59:22.799Z,101068.28
2023-01-06T18:02:42.748Z,101075.22
2023-01-06T18:05:27.670Z,101066.47
2023-01-06T18:08:15.324Z,101060.41
2023-01-06T18:11:20.994Z,101069.09
2023-01-06T18:14:19.317Z,101068.28
2023-01-06T18:17:33.005Z,101063.78
2023-01-06T18:20:18.392Z,101075.94
2023-01-06T18:23:16.195Z,101067.22
2023-01-06T18:26:07.039Z,101067.34
2023-01-06T18:29:07.972Z,101061.16
2023-01-06T18:31:54.060Z,101059.88
2023-01-06T18:34:43.068Z,101070.81
2023-01-06T18:37:32.443Z,101072.38
2023-01-06T18:40:18.876Z,101065.34
2023-01-06T18:43:26.015Z,101075.84
2023-01-06T18:46:18.297Z,101071.44
2023-01-06T18:49:11.843Z,101069.75
2023-01-06T18:51:57.258Z,101071.44
2023-01-06T18:54:42.550Z,101073.97
2023-01-06T18:57:31.241Z,101081.72
2023-01-06T19:00:41.600Z,101071.22
2023-01-06T19:03:40.715Z,101073.84
2023-01-06T19:06:46.568Z,101082.69
2023-01-06T19:09:43.747Z,101095.78
2023-01-06T19:12:36.024Z,101091.50
2023-01-06T19:15:26.414Z,101094.97
2023-01-06T19:18:14.770Z,101063.22
2023-01-06T19:21:01.954Z,101079.22
2023-01-06T19:23:46.897Z,101078.25
2023-01-06T19:26:38.260Z,101074.59
2023-01-06T19:29:28.011Z,101079.84
2023-01-06T19:32:14.747Z,101078.88
2023-01-06T19:35:00.358Z,101076.28
2023-01-06T19:37:45.573Z,101059.81
2023-01-06T19:40:33.506Z,101054.56
2023-01-06T19:43:25.547Z,101051.09
2023-01-06T19:46:26.509Z,101053.63
2023-01-06T19:49:18.737Z,101043.75
2023-01-06T19:52:23.882Z,101047.75
2023-01-06T19:55:18.309Z,101048.56
2023-01-06T19:58:21.279Z,101045.00
2023-01-06T20:01:12.373Z,101023.91
2023-01-06T20:03:57.902Z,101046.78
2023-01-06T20:06:42.834Z,101017.91
2023-01-06T20:09:28.979Z,101018.84
2023-01-06T20:12:13.910Z,101016.88
2023-01-06T20:14:58.940Z,101026.00
2023-01-06T20:17:43.940Z,101028.84
2023-01-06T20:20:28.733Z,101033.03
2023-01-06T20:23:14.305Z,101041.66
2023-01-06T20:25:59.445Z,101026.97
2023-01-06T20:28:44.731Z,101025.06
2023-01-06T20:31:30.527Z,101032.84
2023-01-06T20:34:15.658Z,100995.47
2023-01-06T20:37:00.698Z,101025.06
2023-01-06T20:39:45.815Z,101020.69
2023-01-06T20:42:30.877Z,101016.47
2023-01-06T20:45:15.863Z,101019.72
2023-01-06T20:48:01.507Z,101018.16
2023-01-06T20:50:46.597Z,101010.56
2023-01-06T20:53:32.365Z,101013.72
2023-01-06T20:56:17.485Z,101013.94
2023-01-06T20:59:02.658Z,100999.88
2023-01-06T21:01:48.127Z,101017.53
2023-01-06T21:04:34.477Z,101009.66
2023-01-06T21:07:19.767Z,100995.88
2023-01-06T21:10:05.422Z,101002.63
2023-01-06T21:12:50.637Z,100999.03
2023-01-06T21:15:35.555Z,101004.28
2023-01-06T21:18:20.345Z,101002.50
2023-01-06T21:21:05.669Z,100990.84
2023-01-06T21:23:50.912Z,101012.81
2023-01-06T21:26:36.089Z,101021.41
2023-01-06T21:29:21.631Z,101004.00
2023-01-06T21:32:06.839Z,101002.19
2023-01-06T21:34:52.168Z,101008.19
2023-01-06T21:37:36.927Z,100999.47
2023-01-06T21:40:21.987Z,100986.97
2023-01-06T21:43:09.805Z,100985.63
2023-01-06T21:45:54.709Z,100993.19
2023-01-06T21:48:39.769Z,100987.81
2023-01-06T21:51:24.721Z,100981.97
2023-01-06T21:54:09.991Z,100980.91
2023-01-06T21:56:55.526Z,100979.22
2023-01-06T21:59:40.872Z,100960.44
2023-01-06T22:02:26.360Z,100962.75
2023-01-06T22:05:11.557Z,100970.28
2023-01-06T22:07:56.967Z,100975.66
2023-01-06T22:10:43.964Z,100967.78
2023-01-06T22:13:29.550Z,100972.00
2023-01-06T22:16:14.723Z,100973.88
2023-01-06T22:19:00.109Z,100963.28
2023-01-06T22:21:46.526Z,100965.06
2023-01-06T22:24:33.228Z,100958.22
2023-01-06T22:27:18.113Z,100966.75
2023-01-06T22:30:04.043Z,100951.53
2023-01-06T22:32:49.257Z,100954.97
2023-01-06T22:35:34.755Z,100951.00
2023-01-06T22:38:19.703Z,100935.38
2023-01-06T22:41:04.849Z,100921.72
2023-01-06T22:43:50.960Z,100939.69
2023-01-06T22:46:35.917Z,100936.72
2023-01-06T22:49:21.549Z,100920.78
2023-01-06T22:52:06.660Z,100929.38
2023-01-06T22:54:51.997Z,100914.81
2023-01-06T22:57:36.978Z,100918.56
2023-01-06T23:00:21.858Z,100925.41
2023-01-06T23:03:07.123Z,100905.78
2023-01-06T23:06:01.621Z,100915.75
2023-01-06T23:08:59.216Z,100911.44
2023-01-06T23:11:45.334Z,100895.81
2023-01-06T23:14:30.660Z,100901.03
2023-01-06T23:17:15.787Z,100893.19
2023-01-06T23:20:04.875Z,100887.84
2023-01-06T23:22:49.698Z,100900.13
2023-01-06T23:25:35.068Z,100894.88
2023-01-06T23:28:20.202Z,100889.72
2023-01-06T23:31:17.632Z,100878.19
2023-01-06T23:34:06.952Z,100880.06
2023-01-06T23:36:52.142Z,100874.59
2023-01-06T23:39:37.197Z,100871.25
2023-01-06T23:42:22.410Z,100862.56
2023-01-06T23:45:08.184Z,100859.94
2023-01-06T23:47:53.402Z,100813.88
2023-01-06T23:50:38.479Z,100815.97
2023-01-06T23:53:24.566Z,100837.16
2023-01-06T23:56:24.931Z,100818.81
2023-01-06T23:59:12.140Z,100830.22
